メインページ
METAR-TAF:

METAR-TAF

空港 :

ローマ, イタリア

緯度: 41-57N, 経度: 012-30E, 海抜: 18m

現時点の気象観測

当レポートは10時間29分前の17:50(UTC)に作成
変向風 2kt
気温 17°C
湿度 68%
気圧 1014 hPa
視程10km以上
高度4500ftの雲はほとんどない

METAR: LIRU 211750Z VRB02KT 9999 FEW045 17/11 Q1014

時間: 06:19 (04:19 UTC)

予報

当レポートは14時間19分前の14:00(UTC)に作成
予報は21日の 15時(UTC)から 21日の 24時(UTC)まで有効
変向風 5kt
視程10km以上
高度4000ftの雲は散在している

TAF: LIRU 211400Z 2115/2124 VRB05KT 9999 SCT040

4,000以上の空港の気象観測と天気予報(METAR報とTAF報)

利用可能な観測所は地図上に黄色い丸と赤い丸で示す。

丸の上にカーソルを重ねると観測所名を参照できる。

次にクリックすると気象観測と天気予報を参照できる。

マップの切り替え:黒色「×」印の緑ボタンをクリックして拡大、「-」印の緑ボタンをクリックして縮小、緑色の三角印をクリックして隣りの地図に切り替え


METAR-TAF: